createdAt,value
2023-01-27T00:00:51.165Z,12.37
2023-01-27T00:03:21.524Z,11.50
2023-01-27T00:05:49.246Z,12.83
2023-01-27T00:08:18.204Z,12.40
2023-01-27T00:10:46.543Z,11.40
2023-01-27T00:13:32.795Z,12.10
2023-01-27T00:16:00.476Z,12.53
2023-01-27T00:18:30.422Z,11.80
2023-01-27T00:21:16.378Z,13.00
2023-01-27T00:24:02.610Z,11.30
2023-01-27T00:26:30.327Z,11.40
2023-01-27T00:28:58.333Z,12.40
2023-01-27T00:31:44.274Z,13.67
2023-01-27T00:34:13.227Z,10.73
2023-01-27T00:36:42.940Z,10.77
2023-01-27T00:39:13.154Z,11.60
2023-01-27T00:41:42.207Z,13.50
2023-01-27T00:44:12.986Z,10.57
2023-01-27T00:46:41.859Z,11.17
2023-01-27T00:49:10.640Z,11.90
2023-01-27T00:51:40.043Z,11.67
2023-01-27T00:54:08.588Z,11.10
2023-01-27T00:56:36.815Z,10.83
2023-01-27T00:59:05.104Z,12.10
2023-01-27T01:01:34.961Z,10.47
2023-01-27T01:04:03.598Z,10.77
2023-01-27T01:06:32.171Z,11.80
2023-01-27T01:09:01.582Z,10.77
2023-01-27T01:11:29.180Z,12.43
2023-01-27T01:13:58.121Z,10.93
2023-01-27T01:16:26.639Z,10.93
2023-01-27T01:18:54.767Z,12.33
2023-01-27T01:21:25.027Z,10.27
2023-01-27T01:23:52.849Z,10.77
2023-01-27T01:26:21.866Z,13.00
2023-01-27T01:28:49.523Z,11.20
2023-01-27T01:31:20.582Z,11.60
2023-01-27T01:33:49.595Z,12.00
2023-01-27T01:36:22.714Z,10.13
2023-01-27T01:38:50.686Z,12.10
2023-01-27T01:41:21.145Z,11.13
2023-01-27T01:43:51.322Z,11.63
2023-01-27T01:46:21.683Z,12.93
2023-01-27T01:48:52.834Z,10.70
2023-01-27T01:51:24.464Z,11.10
2023-01-27T01:53:57.336Z,11.40
2023-01-27T01:56:28.336Z,12.30
2023-01-27T01:59:02.799Z,11.97
2023-01-27T02:01:30.569Z,11.30
2023-01-27T02:04:05.324Z,10.70
2023-01-27T02:06:40.657Z,10.50
2023-01-27T02:09:09.148Z,10.80
2023-01-27T02:11:37.174Z,12.10
2023-01-27T02:14:06.744Z,10.93
2023-01-27T02:16:37.161Z,12.20
2023-01-27T02:19:06.527Z,11.90
2023-01-27T02:21:35.618Z,12.70
2023-01-27T02:24:11.285Z,12.50
2023-01-27T02:26:43.670Z,12.40
2023-01-27T02:29:14.457Z,11.40
2023-01-27T02:31:44.033Z,12.27
2023-01-27T02:34:16.134Z,11.70
2023-01-27T02:36:48.243Z,11.93
2023-01-27T02:39:19.493Z,13.47
2023-01-27T02:41:51.681Z,13.03
2023-01-27T02:44:20.752Z,13.37
2023-01-27T02:46:49.380Z,12.17
2023-01-27T02:49:17.050Z,11.50
2023-01-27T02:51:45.901Z,11.20
2023-01-27T02:54:13.622Z,13.17
2023-01-27T02:56:42.881Z,11.70
2023-01-27T02:59:14.608Z,12.53
2023-01-27T03:01:43.280Z,13.13
2023-01-27T03:04:16.117Z,11.80
2023-01-27T03:06:45.132Z,11.60
2023-01-27T03:09:12.846Z,12.00
2023-01-27T03:11:58.208Z,12.30
2023-01-27T03:14:45.135Z,12.90
2023-01-27T03:17:32.247Z,11.53
2023-01-27T03:20:00.385Z,11.93
2023-01-27T03:22:30.386Z,10.73
2023-01-27T03:24:58.271Z,11.30
2023-01-27T03:27:27.210Z,11.37
2023-01-27T03:30:26.207Z,11.73
2023-01-27T03:33:04.137Z,10.33
2023-01-27T03:35:49.427Z,10.07
2023-01-27T03:38:39.404Z,11.07
2023-01-27T03:41:25.043Z,10.83
2023-01-27T03:44:10.422Z,11.73
2023-01-27T03:46:39.586Z,11.90
2023-01-27T03:49:07.755Z,12.90
2023-01-27T03:51:35.785Z,11.80
2023-01-27T03:54:03.900Z,11.23
2023-01-27T03:56:31.533Z,12.50
2023-01-27T03:59:00.011Z,13.23
2023-01-27T04:01:27.845Z,11.10
2023-01-27T04:04:15.062Z,10.40
2023-01-27T04:06:58.170Z,11.87
2023-01-27T04:09:27.795Z,11.50
2023-01-27T04:11:55.706Z,11.70
2023-01-27T04:14:25.091Z,11.17
2023-01-27T04:16:55.651Z,12.40
2023-01-27T04:19:26.065Z,12.87
2023-01-27T04:21:55.216Z,13.50
2023-01-27T04:24:25.849Z,12.17
2023-01-27T04:26:57.192Z,14.10
2023-01-27T04:29:26.711Z,12.00
2023-01-27T04:31:55.108Z,11.40
2023-01-27T04:34:24.843Z,11.90
2023-01-27T04:36:53.334Z,11.40
2023-01-27T04:39:21.607Z,13.17
2023-01-27T04:41:51.168Z,12.47
2023-01-27T04:44:23.382Z,12.00
2023-01-27T04:46:54.203Z,12.70
2023-01-27T04:49:22.725Z,12.53
2023-01-27T04:51:51.951Z,11.30
2023-01-27T04:54:20.015Z,11.67
2023-01-27T04:56:57.073Z,11.20
2023-01-27T04:59:25.142Z,11.40
2023-01-27T05:01:53.101Z,12.17
2023-01-27T05:04:21.854Z,11.30
2023-01-27T05:06:51.145Z,13.20
2023-01-27T05:09:19.228Z,10.77
2023-01-27T05:11:46.901Z,12.20
2023-01-27T05:14:15.062Z,11.70
2023-01-27T05:16:43.744Z,11.77
2023-01-27T05:19:11.458Z,12.00
2023-01-27T05:21:39.853Z,10.97
2023-01-27T05:24:09.490Z,9.97
2023-01-27T05:26:37.684Z,10.53
2023-01-27T05:29:06.148Z,9.37
2023-01-27T05:31:33.894Z,9.60
2023-01-27T05:34:03.892Z,9.40
2023-01-27T05:36:31.695Z,9.80
2023-01-27T05:39:00.683Z,11.30
2023-01-27T05:41:32.152Z,11.83
2023-01-27T05:44:00.947Z,10.60
2023-01-27T05:46:30.732Z,10.80
2023-01-27T05:49:01.044Z,10.40
2023-01-27T05:51:32.151Z,10.40
2023-01-27T05:53:59.988Z,9.40
2023-01-27T05:56:28.459Z,10.07
2023-01-27T05:58:58.762Z,10.37
2023-01-27T06:01:28.994Z,9.27
2023-01-27T06:03:57.393Z,9.77
2023-01-27T06:06:27.313Z,11.40
2023-01-27T06:08:56.263Z,9.60
2023-01-27T06:11:25.606Z,10.43
2023-01-27T06:13:54.698Z,10.37
2023-01-27T06:16:25.092Z,8.67
2023-01-27T06:18:52.866Z,9.77
2023-01-27T06:21:21.265Z,9.77
2023-01-27T06:23:50.094Z,10.17
2023-01-27T06:26:20.240Z,9.17
2023-01-27T06:28:49.053Z,7.97
2023-01-27T06:31:18.992Z,9.63
2023-01-27T06:33:48.395Z,10.53
2023-01-27T06:36:18.472Z,9.17
2023-01-27T06:38:46.454Z,9.50
2023-01-27T06:41:15.141Z,9.30
2023-01-27T06:43:43.218Z,9.37
2023-01-27T06:46:11.122Z,10.23
2023-01-27T06:48:39.699Z,10.10
2023-01-27T06:51:09.044Z,9.87
2023-01-27T06:53:39.101Z,9.57
2023-01-27T06:56:07.813Z,8.70
2023-01-27T06:58:36.321Z,8.80
2023-01-27T07:01:05.940Z,8.37
2023-01-27T07:03:37.588Z,10.30
2023-01-27T07:06:06.234Z,8.77
2023-01-27T07:08:36.210Z,9.40
2023-01-27T07:11:05.456Z,10.43
2023-01-27T07:13:33.068Z,9.93
2023-01-27T07:16:01.465Z,9.53
2023-01-27T07:18:29.541Z,8.20
2023-01-27T07:20:57.169Z,10.30
2023-01-27T07:23:25.242Z,9.77
2023-01-27T07:25:54.457Z,10.13
2023-01-27T07:28:22.118Z,10.13
2023-01-27T07:30:50.322Z,9.90
2023-01-27T07:33:17.987Z,10.33
2023-01-27T07:35:45.820Z,10.70
2023-01-27T07:38:14.217Z,12.57
2023-01-27T07:40:42.289Z,11.17
2023-01-27T07:43:12.183Z,11.97
2023-01-27T07:45:41.476Z,11.63
2023-01-27T07:48:17.751Z,10.37
2023-01-27T07:50:46.399Z,10.67
2023-01-27T07:53:14.046Z,11.53
2023-01-27T07:55:42.956Z,10.50
2023-01-27T07:58:12.367Z,11.57
2023-01-27T08:00:40.234Z,10.40
2023-01-27T08:03:08.635Z,9.60
2023-01-27T08:05:38.406Z,10.50
2023-01-27T08:08:06.985Z,9.70
2023-01-27T08:10:35.093Z,9.30
2023-01-27T08:13:02.774Z,10.07
2023-01-27T08:15:33.009Z,8.10
2023-01-27T08:18:01.881Z,8.10
2023-01-27T08:20:29.580Z,9.20
2023-01-27T08:22:57.703Z,9.07
2023-01-27T08:25:25.845Z,7.87
2023-01-27T08:27:55.668Z,9.93
2023-01-27T08:30:23.859Z,8.50
2023-01-27T08:32:52.848Z,9.13
2023-01-27T08:35:20.851Z,8.00
2023-01-27T08:37:49.310Z,8.53
2023-01-27T08:40:18.227Z,11.73
2023-01-27T08:42:45.941Z,9.50
2023-01-27T08:45:14.718Z,9.30
2023-01-27T08:47:42.436Z,9.40
2023-01-27T08:50:13.805Z,8.67
2023-01-27T08:52:42.363Z,8.30
2023-01-27T08:55:10.127Z,10.00
2023-01-27T08:57:38.531Z,9.20
2023-01-27T09:00:08.899Z,9.23
2023-01-27T09:02:36.952Z,9.03
2023-01-27T09:05:05.325Z,11.40
2023-01-27T09:07:34.402Z,10.00
2023-01-27T09:10:15.932Z,11.33
2023-01-27T09:12:46.187Z,11.50
2023-01-27T09:15:15.912Z,9.97
2023-01-27T09:17:43.787Z,10.40
2023-01-27T09:20:13.644Z,9.90
2023-01-27T09:22:43.167Z,9.80
2023-01-27T09:25:14.544Z,11.53
2023-01-27T09:27:42.331Z,11.30
2023-01-27T09:30:13.109Z,10.83
2023-01-27T09:32:40.921Z,11.90
2023-01-27T09:35:10.735Z,11.10
2023-01-27T09:37:41.987Z,11.40
2023-01-27T09:40:19.446Z,12.50
2023-01-27T09:43:01.002Z,11.03
2023-01-27T09:45:44.194Z,10.23
2023-01-27T09:48:38.718Z,10.90
2023-01-27T09:51:14.951Z,10.30
2023-01-27T09:54:08.391Z,10.30
2023-01-27T09:56:53.190Z,9.43
2023-01-27T09:59:33.719Z,9.13
2023-01-27T10:02:14.536Z,10.60
2023-01-27T10:05:09.431Z,10.30
2023-01-27T10:08:10.632Z,8.10
2023-01-27T10:10:49.525Z,9.20
2023-01-27T10:13:26.059Z,9.00
2023-01-27T10:16:11.410Z,8.80
2023-01-27T10:18:51.972Z,8.27
2023-01-27T10:21:26.903Z,9.10
2023-01-27T10:24:03.438Z,9.70
2023-01-27T10:26:40.411Z,9.20
2023-01-27T10:29:11.189Z,10.00
2023-01-27T10:31:45.044Z,8.27
2023-01-27T10:34:24.507Z,8.63
2023-01-27T10:37:01.767Z,8.40
2023-01-27T10:39:40.156Z,8.10
2023-01-27T10:42:19.262Z,9.53
2023-01-27T10:45:04.256Z,8.50
2023-01-27T10:47:47.542Z,9.80
2023-01-27T10:50:20.470Z,7.83
2023-01-27T10:52:56.364Z,9.23
2023-01-27T10:55:29.023Z,7.93
2023-01-27T10:58:01.576Z,7.10
2023-01-27T11:01:12.929Z,7.50
2023-01-27T11:03:29.986Z,9.20
2023-01-27T11:06:00.686Z,7.87
2023-01-27T11:08:32.287Z,8.00
2023-01-27T11:11:22.202Z,6.53
2023-01-27T11:13:52.433Z,7.27
2023-01-27T11:16:23.068Z,6.90
2023-01-27T11:18:58.064Z,7.57
2023-01-27T11:21:29.065Z,7.53
2023-01-27T11:23:59.697Z,7.60
2023-01-27T11:26:35.322Z,8.27
2023-01-27T11:29:18.448Z,7.27
2023-01-27T11:31:54.711Z,7.07
2023-01-27T11:34:31.674Z,6.60
2023-01-27T11:37:00.543Z,7.33
2023-01-27T11:39:33.480Z,6.80
2023-01-27T11:42:01.553Z,7.73
2023-01-27T11:44:34.988Z,6.50
2023-01-27T11:47:08.215Z,7.20
2023-01-27T11:49:40.861Z,6.87
2023-01-27T11:52:15.119Z,7.47
2023-01-27T11:54:48.158Z,7.40
2023-01-27T11:57:21.018Z,6.90
2023-01-27T11:59:51.169Z,7.13
2023-01-27T12:02:33.241Z,6.83
2023-01-27T12:05:06.368Z,6.90
2023-01-27T12:07:49.060Z,8.43
2023-01-27T12:10:29.612Z,6.63
2023-01-27T12:13:08.353Z,7.53
2023-01-27T12:15:38.099Z,7.50
2023-01-27T12:18:15.231Z,8.23
2023-01-27T12:20:46.018Z,7.40
2023-01-27T12:23:22.081Z,7.20
2023-01-27T12:25:54.700Z,6.60
2023-01-27T12:28:33.177Z,7.23
2023-01-27T12:31:06.889Z,7.40
2023-01-27T12:33:38.806Z,6.50
2023-01-27T12:36:15.096Z,7.30
2023-01-27T12:38:47.323Z,7.57
2023-01-27T12:41:24.978Z,7.30
2023-01-27T12:43:55.816Z,8.20
2023-01-27T12:46:26.952Z,7.20
2023-01-27T12:49:04.036Z,6.63
2023-01-27T12:51:41.625Z,7.97
2023-01-27T12:54:18.898Z,8.17
2023-01-27T12:56:47.356Z,7.40
2023-01-27T12:59:18.961Z,6.60
2023-01-27T13:02:00.716Z,7.03
2023-01-27T13:04:30.447Z,7.97
2023-01-27T13:07:08.136Z,7.90
2023-01-27T13:09:39.615Z,6.03
2023-01-27T13:12:17.991Z,6.10
2023-01-27T13:14:45.833Z,7.47
2023-01-27T13:17:30.962Z,7.93
2023-01-27T13:20:03.973Z,7.17
2023-01-27T13:22:41.199Z,6.53
2023-01-27T13:25:18.437Z,6.80
2023-01-27T13:27:49.417Z,6.60
2023-01-27T13:30:24.457Z,6.40
2023-01-27T13:32:57.140Z,6.90
2023-01-27T13:35:36.594Z,7.07
2023-01-27T13:38:13.308Z,7.50
2023-01-27T13:40:45.604Z,7.40
2023-01-27T13:43:20.224Z,8.40
2023-01-27T13:45:55.423Z,8.40
2023-01-27T13:48:28.578Z,9.97
2023-01-27T13:51:06.286Z,10.20
2023-01-27T13:53:35.564Z,10.20
2023-01-27T13:56:29.644Z,10.53
2023-01-27T13:59:06.369Z,9.10
2023-01-27T14:01:46.311Z,11.00
2023-01-27T14:04:34.280Z,11.47
2023-01-27T14:07:17.113Z,10.53
2023-01-27T14:10:00.988Z,12.70
2023-01-27T14:12:45.121Z,11.87
2023-01-27T14:15:25.382Z,12.20
2023-01-27T14:18:01.030Z,11.83
2023-01-27T14:20:38.236Z,13.53
2023-01-27T14:23:26.288Z,12.63
2023-01-27T14:26:05.937Z,13.17
2023-01-27T14:28:45.210Z,13.30
2023-01-27T14:31:18.681Z,12.00
2023-01-27T14:33:59.466Z,12.77
2023-01-27T14:36:31.946Z,13.40
2023-01-27T14:39:07.322Z,15.20
2023-01-27T14:41:40.465Z,12.73
2023-01-27T14:44:18.415Z,12.70
2023-01-27T14:46:57.590Z,13.03
2023-01-27T14:49:40.710Z,14.03
2023-01-27T14:52:25.834Z,13.13
2023-01-27T14:55:20.184Z,12.27
2023-01-27T14:57:56.687Z,14.40
2023-01-27T15:00:36.787Z,13.00
2023-01-27T15:03:37.959Z,14.73
2023-01-27T15:06:16.189Z,12.97
2023-01-27T15:08:53.049Z,13.40
2023-01-27T15:11:39.852Z,12.97
2023-01-27T15:14:30.724Z,14.30
2023-01-27T15:17:23.031Z,13.40
2023-01-27T15:20:16.227Z,12.20
2023-01-27T15:23:03.049Z,11.60
2023-01-27T15:25:35.817Z,12.73
2023-01-27T15:28:06.161Z,13.40
2023-01-27T15:30:38.518Z,11.57
2023-01-27T15:33:46.543Z,12.60
2023-01-27T15:36:19.915Z,11.47
2023-01-27T15:39:00.838Z,12.00
2023-01-27T15:41:29.452Z,10.07
2023-01-27T15:44:15.094Z,10.23
2023-01-27T15:46:47.475Z,10.30
2023-01-27T15:49:22.664Z,10.87
2023-01-27T15:51:53.155Z,11.00
2023-01-27T15:54:25.831Z,10.37
2023-01-27T15:56:55.342Z,11.30
2023-01-27T15:59:27.520Z,10.30
2023-01-27T16:02:06.642Z,9.47
2023-01-27T16:04:37.823Z,9.80
2023-01-27T16:07:19.777Z,8.70
2023-01-27T16:09:51.067Z,10.07
2023-01-27T16:12:36.761Z,9.90
2023-01-27T16:15:33.630Z,11.17
2023-01-27T16:18:18.553Z,10.40
2023-01-27T16:20:53.927Z,10.00
2023-01-27T16:23:34.275Z,9.20
2023-01-27T16:26:11.846Z,11.40
2023-01-27T16:28:44.059Z,11.90
2023-01-27T16:31:18.167Z,11.50
2023-01-27T16:33:48.699Z,12.17
2023-01-27T16:36:24.512Z,9.77
2023-01-27T16:38:53.637Z,10.30
2023-01-27T16:41:27.154Z,9.80
2023-01-27T16:44:00.285Z,10.43
2023-01-27T16:46:34.192Z,9.47
2023-01-27T16:49:05.399Z,9.00
2023-01-27T16:51:35.026Z,10.20
2023-01-27T16:54:03.204Z,9.83
2023-01-27T16:56:34.766Z,12.03
2023-01-27T16:59:05.460Z,11.47
2023-01-27T17:01:40.904Z,10.80
2023-01-27T17:04:20.005Z,11.43
2023-01-27T17:06:49.977Z,10.17
2023-01-27T17:09:22.294Z,10.20
2023-01-27T17:11:50.152Z,11.67
2023-01-27T17:14:30.403Z,10.90
2023-01-27T17:17:02.010Z,10.23
2023-01-27T17:19:33.869Z,10.87
2023-01-27T17:22:03.825Z,10.30
2023-01-27T17:24:33.789Z,10.10
2023-01-27T17:27:04.377Z,9.90
2023-01-27T17:29:36.583Z,9.63
2023-01-27T17:32:21.727Z,11.03
2023-01-27T17:34:51.443Z,13.53
2023-01-27T17:37:23.571Z,11.67
2023-01-27T17:39:55.230Z,10.27
2023-01-27T17:42:26.930Z,9.73
2023-01-27T17:44:54.584Z,10.33
2023-01-27T17:47:24.796Z,9.70
2023-01-27T17:49:52.586Z,11.77
2023-01-27T17:52:24.250Z,11.70
2023-01-27T17:54:53.056Z,11.70
2023-01-27T17:57:23.038Z,11.13
2023-01-27T18:00:00.308Z,10.90
2023-01-27T18:02:33.195Z,13.37
2023-01-27T18:05:05.198Z,11.97
2023-01-27T18:07:34.336Z,10.80
2023-01-27T18:10:02.296Z,9.93
2023-01-27T18:12:33.322Z,9.73
2023-01-27T18:15:33.797Z,10.20
2023-01-27T18:18:03.839Z,10.77
2023-01-27T18:20:34.545Z,10.50
2023-01-27T18:23:04.441Z,11.90
2023-01-27T18:25:32.948Z,11.20
2023-01-27T18:28:01.038Z,12.83
2023-01-27T18:30:29.075Z,12.17
2023-01-27T18:33:06.716Z,11.30
2023-01-27T18:35:36.723Z,11.47
2023-01-27T18:38:19.689Z,12.33
2023-01-27T18:40:48.557Z,12.40
2023-01-27T18:43:16.217Z,12.80
2023-01-27T18:45:45.064Z,12.77
2023-01-27T18:48:17.850Z,12.07
2023-01-27T18:50:47.615Z,10.87
2023-01-27T18:53:18.616Z,12.60
2023-01-27T18:55:46.391Z,10.43
2023-01-27T18:58:14.479Z,10.27
2023-01-27T19:00:46.393Z,9.87
2023-01-27T19:03:19.396Z,12.27
2023-01-27T19:05:48.741Z,11.53
2023-01-27T19:08:18.682Z,11.53
2023-01-27T19:10:47.954Z,10.60
2023-01-27T19:13:16.571Z,11.20
2023-01-27T19:15:49.910Z,10.80
2023-01-27T19:18:25.104Z,11.53
2023-01-27T19:20:54.777Z,10.40
2023-01-27T19:23:22.995Z,10.43
2023-01-27T19:25:53.557Z,11.03
2023-01-27T19:28:27.207Z,12.00
2023-01-27T19:30:54.903Z,10.70
2023-01-27T19:33:26.126Z,12.20
2023-01-27T19:35:56.176Z,11.17
2023-01-27T19:38:26.641Z,12.20
2023-01-27T19:40:54.607Z,11.00
2023-01-27T19:43:23.811Z,11.80
2023-01-27T19:45:53.683Z,12.67
2023-01-27T19:48:25.541Z,12.37
2023-01-27T19:50:53.683Z,11.40
2023-01-27T19:53:21.607Z,11.63
2023-01-27T19:55:50.335Z,12.23
2023-01-27T19:58:24.833Z,11.83
2023-01-27T20:00:53.777Z,12.60
2023-01-27T20:03:24.896Z,12.27
2023-01-27T20:05:52.762Z,13.37
2023-01-27T20:08:22.871Z,10.20
2023-01-27T20:10:51.952Z,12.40
2023-01-27T20:13:21.917Z,12.37
2023-01-27T20:15:49.544Z,12.07
2023-01-27T20:18:18.936Z,11.03
2023-01-27T20:20:48.385Z,10.60
2023-01-27T20:23:16.812Z,10.50
2023-01-27T20:25:45.259Z,11.97
2023-01-27T20:28:13.434Z,10.13
2023-01-27T20:30:42.741Z,10.30
2023-01-27T20:33:11.520Z,10.10
2023-01-27T20:35:39.144Z,10.03
2023-01-27T20:38:09.852Z,11.13
2023-01-27T20:40:37.536Z,9.77
2023-01-27T20:43:05.299Z,9.30
2023-01-27T20:45:33.671Z,9.60
2023-01-27T20:48:01.690Z,8.80
2023-01-27T20:50:29.450Z,10.50
2023-01-27T20:52:57.267Z,10.13
2023-01-27T20:55:27.113Z,10.53
2023-01-27T20:57:54.717Z,10.30
2023-01-27T21:00:24.030Z,10.67
2023-01-27T21:02:51.667Z,10.60
2023-01-27T21:05:20.123Z,11.70
2023-01-27T21:07:47.781Z,10.10
2023-01-27T21:10:18.383Z,10.80
2023-01-27T21:12:47.746Z,10.13
2023-01-27T21:15:16.807Z,10.30
2023-01-27T21:17:44.543Z,10.23
2023-01-27T21:20:14.758Z,11.80
2023-01-27T21:22:42.475Z,11.37
2023-01-27T21:25:10.459Z,11.00
2023-01-27T21:27:38.551Z,9.50
2023-01-27T21:30:09.869Z,9.50
2023-01-27T21:32:37.931Z,10.03
2023-01-27T21:35:06.584Z,11.10
2023-01-27T21:37:36.471Z,9.00
2023-01-27T21:40:04.611Z,9.50
2023-01-27T21:43:05.183Z,9.50
2023-01-27T21:45:34.288Z,9.17
2023-01-27T21:48:02.855Z,9.80
2023-01-27T21:50:30.978Z,10.23
2023-01-27T21:52:58.636Z,10.50
2023-01-27T21:55:31.224Z,10.57
2023-01-27T21:57:58.942Z,9.20
2023-01-27T22:00:29.208Z,9.30
2023-01-27T22:02:59.961Z,9.73
2023-01-27T22:05:29.322Z,9.40
2023-01-27T22:07:58.726Z,10.80
2023-01-27T22:10:29.875Z,9.63
2023-01-27T22:12:59.228Z,10.20
2023-01-27T22:15:29.901Z,9.33
2023-01-27T22:18:00.156Z,8.83
2023-01-27T22:20:29.291Z,7.90
2023-01-27T22:22:57.296Z,8.30
2023-01-27T22:25:27.048Z,9.57
2023-01-27T22:27:56.712Z,8.70
2023-01-27T22:30:25.096Z,9.20
2023-01-27T22:32:52.840Z,8.60
2023-01-27T22:35:21.955Z,9.37
2023-01-27T22:37:50.271Z,9.03
2023-01-27T22:40:18.688Z,8.53
2023-01-27T22:42:49.539Z,8.13
2023-01-27T22:45:17.801Z,9.80
2023-01-27T22:47:45.694Z,8.20
2023-01-27T22:50:14.079Z,9.20
2023-01-27T22:52:43.086Z,8.33
2023-01-27T22:55:13.713Z,8.57
2023-01-27T22:57:41.587Z,7.73
2023-01-27T23:00:10.841Z,7.70
2023-01-27T23:02:38.996Z,9.00
2023-01-27T23:05:07.645Z,7.80
2023-01-27T23:07:35.637Z,7.67
2023-01-27T23:10:05.662Z,8.40
2023-01-27T23:12:34.202Z,8.70
2023-01-27T23:15:03.419Z,8.67
2023-01-27T23:17:31.667Z,8.13
2023-01-27T23:19:59.556Z,8.00
2023-01-27T23:22:27.501Z,7.60
2023-01-27T23:24:55.478Z,7.90
2023-01-27T23:27:24.635Z,7.70
2023-01-27T23:29:52.685Z,7.80
2023-01-27T23:32:20.318Z,8.03
2023-01-27T23:34:48.263Z,8.30
2023-01-27T23:37:15.952Z,7.77
2023-01-27T23:39:48.561Z,7.13
2023-01-27T23:42:16.600Z,7.77
2023-01-27T23:44:45.674Z,7.97
2023-01-27T23:47:14.600Z,7.23
2023-01-27T23:49:42.879Z,8.47
2023-01-27T23:52:10.822Z,7.67
2023-01-27T23:54:39.262Z,7.57
2023-01-27T23:57:07.672Z,7.77
2023-01-27T23:59:36.259Z,7.93
